Time;durP1;ratioP1;P1;durP2;ratioP2;P2;SDS_P1;SDS_P2;PMS_P1;PMS_P2;Temp;Humidity;BMP_temperature;BMP_pressure;BME280_temperature;BME280_humidity;BME280_pressure;Samples;Min_cycle;Max_cycle;Signal;HPM_P1;HPM_P2
2021/09/19 00:01:18;;;;;;;12.32;10.15;;;13.00;99.90;;;;;;5021313;28;20399;-68
2021/09/19 00:03:44;;;;;;;12.05;10.75;;;12.90;99.90;;;;;;5031829;28;20049;-68
2021/09/19 00:06:09;;;;;;;14.55;11.10;;;12.90;99.90;;;;;;5027026;28;20025;-68
2021/09/19 00:08:35;;;;;;;16.88;11.68;;;13.00;99.90;;;;;;5029194;28;20127;-68
2021/09/19 00:11:02;;;;;;;13.18;11.32;;;12.90;99.90;;;;;;5028597;28;20563;-68
2021/09/19 00:13:27;;;;;;;13.18;11.75;;;12.90;99.90;;;;;;5021834;28;20050;-68
2021/09/19 00:15:53;;;;;;;14.00;12.10;;;12.90;99.90;;;;;;5021498;28;20084;-68
2021/09/19 00:18:19;;;;;;;12.73;11.07;;;12.90;99.90;;;;;;5026492;28;20041;-68
2021/09/19 00:20:45;;;;;;;14.68;12.45;;;12.80;99.90;;;;;;5033911;28;20018;-68
2021/09/19 00:23:11;;;;;;;13.27;11.70;;;12.80;99.90;;;;;;5033034;28;20080;-69
2021/09/19 00:25:37;;;;;;;14.13;11.68;;;12.80;99.90;;;;;;5026141;28;20026;-68
2021/09/19 00:28:04;;;;;;;13.70;11.50;;;12.70;99.90;;;;;;5016283;28;20372;-68
2021/09/19 00:30:30;;;;;;;16.30;13.13;;;12.80;99.90;;;;;;5028496;28;20033;-68
2021/09/19 00:32:56;;;;;;;12.93;11.55;;;12.70;99.90;;;;;;5035263;28;20041;-68
2021/09/19 00:35:22;;;;;;;15.13;13.50;;;12.70;99.90;;;;;;5032872;28;20087;-68
2021/09/19 00:37:47;;;;;;;12.90;11.55;;;12.70;99.90;;;;;;5034653;28;20033;-67
2021/09/19 00:40:13;;;;;;;18.10;14.18;;;12.60;99.90;;;;;;5032657;28;20022;-68
2021/09/19 00:42:39;;;;;;;16.80;13.55;;;12.60;99.90;;;;;;5034898;28;20503;-68
2021/09/19 00:45:11;;;;;;;15.13;13.50;;;12.60;99.90;;;;;;5034440;28;20094;-68
2021/09/19 00:47:39;;;;;;;14.80;12.30;;;12.60;99.90;;;;;;5032202;28;20162;-68
2021/09/19 00:50:07;;;;;;;15.52;13.35;;;12.60;99.90;;;;;;5034845;28;20048;-68
2021/09/19 00:52:33;;;;;;;15.38;13.77;;;12.60;99.90;;;;;;5025837;28;20548;-68
2021/09/19 00:55:00;;;;;;;16.98;13.88;;;12.60;99.90;;;;;;5033770;28;20037;-68
2021/09/19 00:57:27;;;;;;;16.20;14.43;;;12.50;99.90;;;;;;5034713;28;20044;-68
2021/09/19 00:59:53;;;;;;;18.55;15.32;;;12.60;99.90;;;;;;5027457;28;20017;-68
2021/09/19 01:02:19;;;;;;;19.25;16.33;;;12.50;99.90;;;;;;5028732;28;20041;-68
2021/09/19 01:04:46;;;;;;;17.33;15.30;;;12.60;99.90;;;;;;5034263;28;20024;-68
2021/09/19 01:07:15;;;;;;;16.88;15.07;;;12.60;99.90;;;;;;5034649;28;20045;-68
2021/09/19 01:09:41;;;;;;;19.20;15.10;;;12.60;99.90;;;;;;5034565;28;20108;-68
2021/09/19 01:12:09;;;;;;;19.73;16.48;;;12.70;99.90;;;;;;5031822;28;20061;-68
2021/09/19 01:14:38;;;;;;;17.95;16.02;;;12.70;99.90;;;;;;5034414;28;20496;-68
2021/09/19 01:17:05;;;;;;;18.27;16.17;;;12.80;99.90;;;;;;5033181;28;20041;-67
2021/09/19 01:19:34;;;;;;;18.33;16.33;;;12.80;99.90;;;;;;5031877;28;20029;-68
2021/09/19 01:22:00;;;;;;;18.63;16.55;;;12.80;99.90;;;;;;5031962;28;20040;-68
2021/09/19 01:24:27;;;;;;;17.20;14.65;;;12.80;99.90;;;;;;5024801;28;20361;-68
2021/09/19 01:26:53;;;;;;;18.13;15.02;;;12.80;99.90;;;;;;5034138;28;20033;-68
2021/09/19 01:29:19;;;;;;;16.42;14.05;;;12.80;99.90;;;;;;5030087;28;20124;-68
2021/09/19 01:31:45;;;;;;;18.25;15.45;;;12.80;99.90;;;;;;5022574;28;20388;-68
2021/09/19 01:34:10;;;;;;;18.75;16.13;;;12.80;99.90;;;;;;5029571;28;20041;-68
2021/09/19 01:36:36;;;;;;;18.58;15.57;;;12.80;99.90;;;;;;5031871;28;20033;-68
2021/09/19 01:39:05;;;;;;;18.50;15.50;;;12.80;99.90;;;;;;5025097;28;20037;-68
2021/09/19 01:41:31;;;;;;;19.55;15.38;;;12.80;99.90;;;;;;5026321;28;20121;-68
2021/09/19 01:43:56;;;;;;;18.70;16.52;;;12.80;99.90;;;;;;5034202;28;20044;-68
2021/09/19 01:46:22;;;;;;;18.45;16.45;;;12.80;99.90;;;;;;5014865;28;20052;-68
2021/09/19 01:48:48;;;;;;;19.95;15.75;;;12.80;99.90;;;;;;5033132;28;20030;-68
2021/09/19 01:51:14;;;;;;;23.27;18.30;;;12.80;99.90;;;;;;5030203;28;20041;-68
2021/09/19 01:53:40;;;;;;;24.10;18.55;;;12.80;99.90;;;;;;5033331;28;20034;-67
2021/09/19 01:56:07;;;;;;;21.10;17.67;;;12.80;99.90;;;;;;5027510;28;20388;-68
2021/09/19 01:58:42;;;;;;;21.92;18.08;;;12.80;99.90;;;;;;5031744;28;20135;-68
2021/09/19 02:01:09;;;;;;;19.85;16.52;;;12.80;99.90;;;;;;5027538;28;20026;-68
2021/09/19 02:03:37;;;;;;;18.10;16.20;;;12.80;99.90;;;;;;5028788;28;20040;-68
2021/09/19 02:06:03;;;;;;;22.77;18.13;;;12.80;99.90;;;;;;5031311;28;20033;-68
2021/09/19 02:08:28;;;;;;;19.40;17.30;;;12.80;99.90;;;;;;5031927;28;20033;-68
2021/09/19 02:10:54;;;;;;;23.35;18.05;;;12.80;99.90;;;;;;5032891;28;20033;-68
2021/09/19 02:13:19;;;;;;;21.63;18.02;;;12.80;99.90;;;;;;5027904;28;20109;-67
2021/09/19 02:15:45;;;;;;;19.02;17.02;;;12.80;99.90;;;;;;5024838;28;20041;-68
2021/09/19 02:18:10;;;;;;;19.95;17.15;;;12.80;99.90;;;;;;5030135;28;20390;-68
2021/09/19 02:20:36;;;;;;;18.88;16.30;;;12.80;99.90;;;;;;5027342;28;20033;-68
2021/09/19 02:23:01;;;;;;;19.15;16.88;;;12.80;99.90;;;;;;5032203;28;20080;-68
2021/09/19 02:25:27;;;;;;;19.50;17.35;;;12.80;99.90;;;;;;5029775;28;20056;-68
2021/09/19 02:27:52;;;;;;;20.80;17.65;;;12.80;99.90;;;;;;5031393;28;20395;-68
2021/09/19 02:30:18;;;;;;;19.85;17.48;;;12.80;99.90;;;;;;5030361;28;20732;-69
2021/09/19 02:32:44;;;;;;;19.52;17.10;;;12.80;99.90;;;;;;5033072;28;20030;-68
2021/09/19 02:35:10;;;;;;;20.67;18.45;;;12.80;99.90;;;;;;5032524;28;20028;-68
2021/09/19 02:37:40;;;;;;;19.40;15.88;;;12.80;99.90;;;;;;5024972;28;20017;-68
2021/09/19 02:40:08;;;;;;;17.70;15.80;;;12.80;99.90;;;;;;5014833;28;20049;-68
2021/09/19 02:42:35;;;;;;;18.30;15.90;;;12.80;99.90;;;;;;5028629;28;20044;-68
2021/09/19 02:45:02;;;;;;;22.17;16.83;;;12.90;99.90;;;;;;5020055;28;20030;-68
2021/09/19 02:47:28;;;;;;;18.85;16.45;;;12.80;99.90;;;;;;5030180;28;20062;-68
2021/09/19 02:49:53;;;;;;;19.67;16.38;;;12.80;99.90;;;;;;5031251;28;20037;-68
2021/09/19 02:52:19;;;;;;;20.77;17.13;;;12.80;99.90;;;;;;5032568;28;20029;-68
2021/09/19 02:54:44;;;;;;;20.80;16.80;;;12.80;99.90;;;;;;5018915;28;20406;-68
2021/09/19 02:57:10;;;;;;;21.08;17.17;;;12.80;99.90;;;;;;5029507;28;20025;-68
2021/09/19 02:59:35;;;;;;;20.80;17.52;;;12.80;99.90;;;;;;5026454;28;20034;-68
2021/09/19 03:02:01;;;;;;;19.42;17.33;;;12.80;99.90;;;;;;5025908;28;20021;-68
2021/09/19 03:04:26;;;;;;;19.52;15.23;;;12.80;99.90;;;;;;5030120;28;20026;-68
2021/09/19 03:06:52;;;;;;;23.67;17.65;;;12.80;99.90;;;;;;5027584;28;20029;-68
2021/09/19 03:09:17;;;;;;;21.25;17.67;;;12.80;99.90;;;;;;5024506;28;20030;-68
2021/09/19 03:11:43;;;;;;;20.60;16.48;;;12.80;99.90;;;;;;5018064;28;20534;-68
2021/09/19 03:14:08;;;;;;;18.80;16.38;;;12.80;99.90;;;;;;5027173;28;20034;-68
2021/09/19 03:16:34;;;;;;;22.30;17.30;;;12.70;99.90;;;;;;5030444;28;20049;-68
2021/09/19 03:19:00;;;;;;;20.50;17.38;;;12.80;99.90;;;;;;5024702;28;20052;-68
2021/09/19 03:21:26;;;;;;;20.55;17.15;;;12.70;99.90;;;;;;5025775;28;20025;-68
2021/09/19 03:23:51;;;;;;;19.60;17.33;;;12.70;99.90;;;;;;5023533;28;20031;-68
2021/09/19 03:26:17;;;;;;;19.33;16.50;;;12.70;99.90;;;;;;5030046;28;20037;-68
2021/09/19 03:28:42;;;;;;;20.85;17.45;;;12.70;99.90;;;;;;5028301;28;20029;-68
2021/09/19 03:31:08;;;;;;;19.88;17.80;;;12.70;99.90;;;;;;5031812;28;20029;-68
2021/09/19 03:33:33;;;;;;;21.40;17.80;;;12.60;99.90;;;;;;5026600;28;20040;-68
2021/09/19 03:35:59;;;;;;;20.88;18.20;;;12.70;99.90;;;;;;5031478;28;20041;-68
2021/09/19 03:38:28;;;;;;;21.10;17.63;;;12.70;99.90;;;;;;5029068;28;20087;-68
2021/09/19 03:40:54;;;;;;;22.05;18.33;;;12.70;99.90;;;;;;5031232;28;20029;-68
2021/09/19 03:43:19;;;;;;;25.50;19.75;;;12.70;99.90;;;;;;5025015;28;20087;-67
2021/09/19 03:45:44;;;;;;;19.52;16.73;;;12.60;99.90;;;;;;5030463;28;20025;-68
2021/09/19 03:48:10;;;;;;;20.95;16.77;;;12.70;99.90;;;;;;5022644;28;20109;-68
2021/09/19 03:50:36;;;;;;;23.42;18.42;;;12.70;99.90;;;;;;5030587;28;20491;-68
2021/09/19 03:53:02;;;;;;;20.77;17.23;;;12.70;99.90;;;;;;5030613;28;20033;-67
2021/09/19 03:55:28;;;;;;;21.48;17.35;;;12.70;99.90;;;;;;5030900;28;20056;-67
2021/09/19 03:57:53;;;;;;;22.33;18.15;;;12.70;99.90;;;;;;5031792;28;20424;-67
2021/09/19 04:00:20;;;;;;;22.15;19.10;;;12.70;99.90;;;;;;5028113;28;20072;-68
2021/09/19 04:02:45;;;;;;;24.67;19.20;;;12.70;99.90;;;;;;5031348;28;20021;-67
2021/09/19 04:05:11;;;;;;;21.13;16.45;;;12.70;99.90;;;;;;5028989;28;20361;-68
2021/09/19 04:07:38;;;;;;;25.02;19.23;;;12.70;99.90;;;;;;5021452;28;20026;-67
2021/09/19 04:10:05;;;;;;;22.27;19.40;;;12.80;99.90;;;;;;5029821;28;20037;-68
2021/09/19 04:12:31;;;;;;;21.83;18.50;;;12.80;99.90;;;;;;5023167;28;20105;-68
2021/09/19 04:14:57;;;;;;;23.52;20.00;;;12.80;99.90;;;;;;5025027;28;20071;-68
2021/09/19 04:17:22;;;;;;;24.17;19.33;;;12.80;99.90;;;;;;5030423;28;20057;-68
2021/09/19 04:19:48;;;;;;;22.02;18.60;;;12.80;99.90;;;;;;5028391;28;20109;-68
2021/09/19 04:22:14;;;;;;;23.88;20.02;;;12.80;99.90;;;;;;5022430;28;20034;-68
2021/09/19 04:24:39;;;;;;;25.88;20.02;;;12.80;99.90;;;;;;5016988;28;20429;-68
2021/09/19 04:27:06;;;;;;;27.15;20.65;;;12.80;99.90;;;;;;5030624;28;20079;-67
2021/09/19 04:29:32;;;;;;;24.50;19.02;;;12.80;99.90;;;;;;5018908;28;20048;-68
2021/09/19 04:31:58;;;;;;;28.27;21.67;;;12.90;99.90;;;;;;5022535;28;20111;-67
2021/09/19 04:34:23;;;;;;;26.00;20.85;;;12.90;99.90;;;;;;5028266;28;20503;-67
2021/09/19 04:36:49;;;;;;;27.90;21.65;;;12.90;99.90;;;;;;5017855;28;20044;-67
2021/09/19 04:39:14;;;;;;;27.80;22.08;;;12.90;99.90;;;;;;5026987;28;20030;-67
2021/09/19 04:41:40;;;;;;;26.88;20.65;;;12.90;99.90;;;;;;5021150;28;20034;-67
2021/09/19 04:44:05;;;;;;;26.30;20.80;;;12.90;99.90;;;;;;5026559;28;20026;-67
2021/09/19 04:46:31;;;;;;;28.52;21.63;;;12.90;99.90;;;;;;5030619;28;20030;-68
2021/09/19 04:48:56;;;;;;;28.52;21.42;;;12.90;99.90;;;;;;5029620;28;20510;-67
2021/09/19 04:51:25;;;;;;;28.33;21.40;;;12.80;99.90;;;;;;5026880;28;20030;-68
2021/09/19 04:53:50;;;;;;;27.17;21.80;;;12.90;99.90;;;;;;5023921;28;20033;-68
2021/09/19 04:56:16;;;;;;;29.58;21.25;;;12.80;99.90;;;;;;5024361;28;20073;-67
2021/09/19 04:58:41;;;;;;;27.45;21.25;;;12.90;99.90;;;;;;5026811;28;20042;-68
2021/09/19 05:01:07;;;;;;;28.95;21.70;;;12.80;99.90;;;;;;5016253;28;20440;-68
2021/09/19 05:03:33;;;;;;;27.77;22.00;;;12.80;99.90;;;;;;5022571;28;20031;-67
2021/09/19 05:05:58;;;;;;;24.15;17.63;;;12.80;99.90;;;;;;5029199;28;20029;-67
2021/09/19 05:08:25;;;;;;;26.35;20.15;;;12.80;99.90;;;;;;5034869;28;20040;-68
2021/09/19 05:10:51;;;;;;;26.58;20.67;;;12.80;99.90;;;;;;5033648;28;20068;-67
2021/09/19 05:13:16;;;;;;;28.88;21.65;;;12.70;99.90;;;;;;5031271;28;20061;-68
2021/09/19 05:15:42;;;;;;;27.83;21.05;;;12.70;99.90;;;;;;5031806;28;20045;-68
2021/09/19 05:18:08;;;;;;;27.15;20.67;;;12.70;99.90;;;;;;5034250;28;20065;-68
2021/09/19 05:20:33;;;;;;;27.17;19.10;;;12.70;99.90;;;;;;5033657;28;20074;-69
2021/09/19 05:22:59;;;;;;;30.83;21.23;;;12.60;99.90;;;;;;5030926;28;20096;-68
2021/09/19 05:25:24;;;;;;;26.98;20.25;;;12.70;99.90;;;;;;5033670;28;20053;-68
2021/09/19 05:27:52;;;;;;;24.42;19.00;;;12.60;99.90;;;;;;5033250;28;20033;-68
2021/09/19 05:30:18;;;;;;;26.55;18.85;;;12.60;99.90;;;;;;5032150;28;20490;-69
2021/09/19 05:32:44;;;;;;;25.65;19.27;;;12.60;99.90;;;;;;5025709;28;20033;-68
2021/09/19 05:35:10;;;;;;;24.67;19.15;;;12.60;99.90;;;;;;5032933;28;20032;-68
2021/09/19 05:37:36;;;;;;;24.48;17.42;;;12.60;99.90;;;;;;5033155;28;20091;-68
2021/09/19 05:40:03;;;;;;;28.48;19.00;;;12.60;99.90;;;;;;5033592;28;20479;-68
2021/09/19 05:42:29;;;;;;;26.95;19.75;;;12.60;99.90;;;;;;5025890;28;20037;-68
2021/09/19 05:44:54;;;;;;;22.23;17.63;;;12.60;99.90;;;;;;5017349;28;20391;-68
2021/09/19 05:47:20;;;;;;;25.88;18.73;;;12.60;99.90;;;;;;5026961;28;20036;-68
2021/09/19 05:49:45;;;;;;;24.02;18.05;;;12.70;99.90;;;;;;5034151;28;20395;-68
2021/09/19 05:52:11;;;;;;;23.88;18.40;;;12.70;99.90;;;;;;5020518;28;20038;-68
2021/09/19 05:54:36;;;;;;;23.30;18.65;;;12.70;99.90;;;;;;5014687;28;20451;-69
2021/09/19 05:57:03;;;;;;;24.95;17.98;;;12.70;99.90;;;;;;5019478;28;20095;-68
2021/09/19 05:59:28;;;;;;;23.33;18.23;;;12.70;99.90;;;;;;5034149;28;20116;-68
2021/09/19 06:01:54;;;;;;;22.80;17.98;;;12.80;99.90;;;;;;5026023;28;20105;-68
2021/09/19 06:04:19;;;;;;;27.13;18.30;;;12.80;99.90;;;;;;5032972;28;20057;-68
2021/09/19 06:06:45;;;;;;;27.85;18.27;;;12.80;99.90;;;;;;5018396;28;20025;-68
2021/09/19 06:09:11;;;;;;;23.33;17.13;;;12.80;99.90;;;;;;5033631;28;20364;-68
2021/09/19 06:11:36;;;;;;;25.52;17.25;;;12.80;99.90;;;;;;5028374;28;20064;-68
2021/09/19 06:14:02;;;;;;;21.40;16.73;;;12.90;99.90;;;;;;5033627;28;20109;-68
2021/09/19 06:16:27;;;;;;;25.88;18.67;;;12.90;99.90;;;;;;5028679;28;20487;-68
2021/09/19 06:18:53;;;;;;;20.48;15.82;;;12.90;99.90;;;;;;5027048;28;20100;-68
2021/09/19 06:21:18;;;;;;;22.65;16.85;;;12.90;99.90;;;;;;5026480;28;20079;-68
2021/09/19 06:23:44;;;;;;;21.13;16.83;;;13.00;99.90;;;;;;5032417;28;20446;-68
2021/09/19 06:26:09;;;;;;;21.60;16.98;;;13.00;99.90;;;;;;5032332;28;20025;-68
2021/09/19 06:28:35;;;;;;;23.85;16.48;;;13.00;99.90;;;;;;5029731;28;20061;-68
2021/09/19 06:31:01;;;;;;;22.75;16.83;;;13.00;99.90;;;;;;5032300;28;20386;-68
2021/09/19 06:33:27;;;;;;;22.95;18.25;;;13.10;99.90;;;;;;5031020;28;20466;-68
2021/09/19 06:35:53;;;;;;;20.98;16.80;;;13.10;99.90;;;;;;5029494;28;20074;-67
2021/09/19 06:38:19;;;;;;;21.13;17.15;;;13.10;99.90;;;;;;5023733;28;20037;-67
2021/09/19 06:40:44;;;;;;;22.65;18.10;;;13.10;99.90;;;;;;5025276;28;20037;-67
2021/09/19 06:43:10;;;;;;;24.67;17.95;;;13.20;99.90;;;;;;5023625;28;20101;-67
2021/09/19 06:45:35;;;;;;;17.65;14.18;;;13.20;99.90;;;;;;5030217;28;20025;-67
2021/09/19 06:48:01;;;;;;;20.60;15.68;;;13.20;99.90;;;;;;5031217;28;20041;-67
2021/09/19 06:50:26;;;;;;;21.83;16.45;;;13.20;99.90;;;;;;5030313;28;20483;-67
2021/09/19 06:52:52;;;;;;;21.13;16.77;;;13.20;99.90;;;;;;5020082;28;20041;-67
2021/09/19 06:55:17;;;;;;;19.15;14.48;;;13.20;99.90;;;;;;5031700;28;20033;-67
2021/09/19 06:57:43;;;;;;;19.90;15.63;;;13.20;99.90;;;;;;5033034;28;20738;-67
2021/09/19 07:00:09;;;;;;;20.85;16.17;;;13.30;99.90;;;;;;5022759;28;20034;-67
2021/09/19 07:02:36;;;;;;;19.20;15.90;;;13.30;99.90;;;;;;5028723;28;20034;-67
2021/09/19 07:05:02;;;;;;;19.70;15.65;;;13.40;99.90;;;;;;5033329;28;20014;-67
2021/09/19 07:07:28;;;;;;;19.17;14.85;;;13.60;99.90;;;;;;5030133;28;20133;-67
2021/09/19 07:09:53;;;;;;;20.60;15.38;;;13.80;99.90;;;;;;5018980;28;20041;-67
2021/09/19 07:12:19;;;;;;;17.15;13.88;;;13.90;99.90;;;;;;5020454;28;20034;-66
2021/09/19 07:14:44;;;;;;;18.80;13.45;;;14.10;99.90;;;;;;5020921;28;20021;-68
2021/09/19 07:17:10;;;;;;;16.10;13.48;;;14.30;99.90;;;;;;5028084;28;20131;-67
2021/09/19 07:19:39;;;;;;;17.45;13.48;;;14.40;99.90;;;;;;5022349;28;20487;-68
2021/09/19 07:22:04;;;;;;;16.08;13.20;;;14.50;99.90;;;;;;5013364;28;20030;-67
2021/09/19 07:24:30;;;;;;;15.52;12.75;;;14.50;99.90;;;;;;5026626;28;20040;-68
2021/09/19 07:26:56;;;;;;;16.00;12.05;;;14.50;99.90;;;;;;5028836;28;20057;-69
2021/09/19 07:29:21;;;;;;;16.77;13.32;;;14.50;99.90;;;;;;5021771;28;20506;-67
2021/09/19 07:31:50;;;;;;;14.68;11.75;;;14.60;99.90;;;;;;5032119;28;20033;-68
2021/09/19 07:34:16;;;;;;;12.98;11.00;;;14.60;99.90;;;;;;5023108;28;20083;-67
2021/09/19 07:36:42;;;;;;;15.85;12.07;;;14.70;99.90;;;;;;5017829;28;20030;-67
2021/09/19 07:39:08;;;;;;;13.23;11.40;;;14.70;99.90;;;;;;5027500;28;20169;-68
2021/09/19 07:41:33;;;;;;;13.43;11.63;;;14.80;99.90;;;;;;5011858;28;20455;-68
2021/09/19 07:44:00;;;;;;;12.05;9.60;;;14.90;99.90;;;;;;5018529;28;20029;-68
2021/09/19 07:46:26;;;;;;;13.02;11.38;;;15.10;99.90;;;;;;5023581;28;20025;-68
2021/09/19 07:48:52;;;;;;;12.65;10.55;;;15.10;99.90;;;;;;5021388;28;20490;-67
2021/09/19 07:51:18;;;;;;;12.52;11.00;;;15.20;99.90;;;;;;5022793;28;20030;-67
2021/09/19 07:53:45;;;;;;;12.35;10.40;;;15.20;99.90;;;;;;5022520;28;20029;-67
2021/09/19 07:56:12;;;;;;;11.85;9.68;;;15.40;99.90;;;;;;5023232;28;20107;-68
2021/09/19 07:58:37;;;;;;;12.10;10.15;;;15.40;99.90;;;;;;5020097;28;20033;-68
2021/09/19 08:01:03;;;;;;;11.70;10.18;;;15.50;99.90;;;;;;5030768;28;20025;-68
2021/09/19 08:03:29;;;;;;;13.93;9.20;;;15.50;99.90;;;;;;5031440;28;20053;-68
2021/09/19 08:05:54;;;;;;;11.48;9.40;;;15.60;99.90;;;;;;5030432;28;20111;-68
2021/09/19 08:08:20;;;;;;;9.93;7.82;;;15.60;99.90;;;;;;5028376;28;20048;-68
2021/09/19 08:10:46;;;;;;;9.63;6.60;;;15.70;99.90;;;;;;5022333;28;20048;-68
2021/09/19 08:13:13;;;;;;;7.32;5.70;;;15.80;99.90;;;;;;5029425;28;20034;-68
2021/09/19 08:15:39;;;;;;;7.05;5.72;;;15.90;99.90;;;;;;5028987;28;20088;-68
2021/09/19 08:18:05;;;;;;;8.07;6.22;;;15.90;99.90;;;;;;5029915;28;20029;-68
2021/09/19 08:20:30;;;;;;;5.78;5.10;;;16.00;99.90;;;;;;5029344;28;20068;-67
2021/09/19 08:22:56;;;;;;;7.00;5.15;;;16.10;99.90;;;;;;5029633;28;20053;-67
2021/09/19 08:25:22;;;;;;;4.85;4.22;;;16.10;99.90;;;;;;5018618;28;20036;-67
2021/09/19 08:27:48;;;;;;;5.15;4.53;;;16.30;99.90;;;;;;5028379;28;20071;-67
2021/09/19 08:30:14;;;;;;;6.35;4.10;;;16.40;99.90;;;;;;5029511;28;20029;-67
2021/09/19 08:32:40;;;;;;;5.03;3.75;;;16.50;99.90;;;;;;5030430;28;20025;-67
2021/09/19 08:35:07;;;;;;;6.00;3.15;;;16.70;99.90;;;;;;5025740;28;20037;-68
2021/09/19 08:37:33;;;;;;;4.35;3.13;;;16.80;99.90;;;;;;5029642;28;20495;-68
2021/09/19 08:39:58;;;;;;;4.75;2.90;;;16.80;99.90;;;;;;5028047;28;20033;-68
2021/09/19 08:42:24;;;;;;;3.75;2.47;;;16.80;99.90;;;;;;5034380;28;20036;-68
2021/09/19 08:44:50;;;;;;;4.90;3.25;;;16.80;99.90;;;;;;5031463;28;20025;-68
2021/09/19 08:47:16;;;;;;;3.88;3.20;;;16.90;99.90;;;;;;5015709;28;20076;-68
2021/09/19 08:49:43;;;;;;;2.50;2.13;;;17.00;99.90;;;;;;5011541;28;20078;-68
2021/09/19 08:52:10;;;;;;;3.45;2.45;;;17.10;99.90;;;;;;5026188;28;20124;-68
2021/09/19 08:54:37;;;;;;;3.80;2.42;;;17.20;99.90;;;;;;5028508;28;20029;-67
2021/09/19 08:57:04;;;;;;;4.13;2.45;;;17.30;99.90;;;;;;5033480;28;20037;-68
2021/09/19 08:59:50;;;;;;;8.38;2.97;;;17.50;99.60;;;;;;5033325;28;20029;-68
2021/09/19 09:02:20;;;;;;;4.88;2.42;;;17.60;99.30;;;;;;5034022;28;20685;-68
2021/09/19 09:04:46;;;;;;;2.72;2.40;;;17.70;99.20;;;;;;5032379;28;20040;-68
2021/09/19 09:07:13;;;;;;;4.68;2.10;;;17.70;99.00;;;;;;5017365;28;20014;-67
2021/09/19 09:09:57;;;;;;;2.95;2.35;;;17.80;98.80;;;;;;5016671;28;20396;-68
2021/09/19 09:12:27;;;;;;;2.90;2.03;;;17.90;98.70;;;;;;5026725;28;20029;-68
2021/09/19 09:14:55;;;;;;;2.40;2.00;;;18.00;98.50;;;;;;5028429;28;20040;-68
2021/09/19 09:17:26;;;;;;;5.32;2.70;;;18.10;98.20;;;;;;5027695;28;20123;-68
2021/09/19 09:19:57;;;;;;;4.28;1.70;;;18.20;97.60;;;;;;5031559;28;20484;-68
2021/09/19 09:22:25;;;;;;;4.65;2.40;;;18.20;97.50;;;;;;5026973;28;20365;-68
2021/09/19 09:25:11;;;;;;;3.58;2.45;;;18.30;97.50;;;;;;5029848;28;20387;-67
2021/09/19 09:27:45;;;;;;;2.60;1.75;;;18.40;97.40;;;;;;5022115;28;20484;-67
2021/09/19 09:30:22;;;;;;;3.55;1.85;;;18.40;97.30;;;;;;5023962;28;20491;-67
2021/09/19 09:33:03;;;;;;;3.53;1.60;;;18.60;97.20;;;;;;5026261;28;21367;-67
2021/09/19 09:35:37;;;;;;;2.28;1.35;;;18.70;97.00;;;;;;5022157;28;20120;-67
2021/09/19 09:38:22;;;;;;;3.85;1.65;;;18.70;96.80;;;;;;5023247;28;20029;-67
2021/09/19 09:40:48;;;;;;;2.75;1.50;;;18.70;96.70;;;;;;5025393;28;20541;-68
2021/09/19 09:43:16;;;;;;;3.15;2.10;;;18.90;96.80;;;;;;5023012;28;20063;-67
2021/09/19 09:45:52;;;;;;;2.50;1.90;;;18.90;95.90;;;;;;5020753;28;20041;-67
2021/09/19 09:48:38;;;;;;;2.60;1.85;;;18.90;95.60;;;;;;5028580;28;20061;-67
2021/09/19 09:51:18;;;;;;;3.15;1.58;;;18.90;95.70;;;;;;5023101;28;20021;-67
2021/09/19 09:53:44;;;;;;;2.78;2.17;;;19.00;95.80;;;;;;5020642;28;20026;-67
2021/09/19 09:56:09;;;;;;;3.95;2.03;;;19.10;95.50;;;;;;5029897;28;20033;-67
2021/09/19 09:58:35;;;;;;;3.42;2.50;;;19.20;95.20;;;;;;5027508;28;20034;-66
2021/09/19 10:01:01;;;;;;;2.45;1.50;;;19.20;94.90;;;;;;5019938;28;20113;-67
2021/09/19 10:03:27;;;;;;;2.83;1.63;;;19.20;94.60;;;;;;5029998;28;20087;-67
2021/09/19 10:05:53;;;;;;;2.33;1.67;;;19.10;94.70;;;;;;5027566;28;20423;-68
2021/09/19 10:08:23;;;;;;;2.25;1.50;;;19.20;94.80;;;;;;5019790;28;20033;-68
2021/09/19 10:10:48;;;;;;;3.28;1.95;;;19.30;94.70;;;;;;5024787;28;20045;-68
2021/09/19 10:13:15;;;;;;;2.45;1.70;;;19.40;94.70;;;;;;5018425;28;20521;-68
2021/09/19 10:15:42;;;;;;;2.90;1.42;;;19.50;94.70;;;;;;5022498;28;20041;-69
2021/09/19 10:18:10;;;;;;;4.53;1.77;;;19.50;94.00;;;;;;5023633;28;20080;-69
2021/09/19 10:20:48;;;;;;;3.10;2.03;;;19.60;94.20;;;;;;5022650;28;20108;-69
2021/09/19 10:23:25;;;;;;;3.25;1.60;;;19.70;94.10;;;;;;5021452;28;20025;-68
2021/09/19 10:26:08;;;;;;;2.83;1.88;;;19.80;94.10;;;;;;5018307;28;20026;-68
2021/09/19 10:28:34;;;;;;;2.85;1.85;;;19.80;93.80;;;;;;5024654;28;20026;-68
2021/09/19 10:31:09;;;;;;;4.68;1.85;;;19.90;93.70;;;;;;5025530;28;20037;-69
2021/09/19 10:33:39;;;;;;;3.28;1.60;;;20.00;93.30;;;;;;5028228;28;20025;-68
2021/09/19 10:36:20;;;;;;;2.90;1.73;;;20.00;93.60;;;;;;5024742;28;20369;-68
2021/09/19 10:38:46;;;;;;;1.60;1.08;;;20.10;93.40;;;;;;5033112;28;20124;-68
2021/09/19 10:41:17;;;;;;;2.15;1.27;;;20.20;93.20;;;;;;5028873;28;20906;-69
2021/09/19 10:44:00;;;;;;;2.23;1.23;;;20.30;93.10;;;;;;5027915;28;20061;-68
2021/09/19 10:46:35;;;;;;;3.45;1.40;;;20.60;93.30;;;;;;5020405;28;20383;-68
2021/09/19 10:49:31;;;;;;;2.75;0.98;;;20.80;92.60;;;;;;5029616;28;20115;-69
2021/09/19 10:52:00;;;;;;;2.20;1.30;;;21.00;92.60;;;;;;5019728;28;20457;-69
2021/09/19 10:54:50;;;;;;;2.28;1.30;;;21.00;92.10;;;;;;5023227;28;20454;-69
2021/09/19 10:57:27;;;;;;;2.33;1.35;;;21.00;91.50;;;;;;5022944;28;20107;-68
2021/09/19 11:00:08;;;;;;;2.10;1.10;;;20.90;91.10;;;;;;5035633;28;20042;-69
2021/09/19 11:02:35;;;;;;;1.90;1.00;;;20.80;91.30;;;;;;5022459;28;20079;-68
2021/09/19 11:05:20;;;;;;;2.03;0.90;;;20.80;91.50;;;;;;5030194;28;20091;-69
2021/09/19 11:07:46;;;;;;;2.85;0.88;;;20.90;91.20;;;;;;5024030;28;20044;-69
2021/09/19 11:10:14;;;;;;;3.53;0.98;;;20.80;90.70;;;;;;5012771;28;20018;-68
2021/09/19 11:12:42;;;;;;;2.13;1.15;;;20.70;90.90;;;;;;5024188;28;20487;-68
2021/09/19 11:15:11;;;;;;;2.42;1.15;;;20.70;91.00;;;;;;5031543;28;20029;-69
2021/09/19 11:17:44;;;;;;;3.17;1.00;;;20.80;91.00;;;;;;5028903;28;20041;-69
2021/09/19 11:20:13;;;;;;;2.47;0.80;;;20.90;90.60;;;;;;5018936;28;20029;-69
2021/09/19 11:22:43;;;;;;;1.42;0.82;;;21.00;90.10;;;;;;5030618;28;20053;-69
2021/09/19 11:25:11;;;;;;;1.35;0.70;;;21.10;89.90;;;;;;5027835;28;20025;-69
2021/09/19 11:27:39;;;;;;;2.15;0.80;;;21.20;90.00;;;;;;5027293;28;20310;-69
2021/09/19 11:30:06;;;;;;;2.40;0.70;;;21.20;89.40;;;;;;5023164;28;20558;-69
2021/09/19 11:32:31;;;;;;;1.75;0.63;;;21.20;88.80;;;;;;5031099;28;20021;-69
2021/09/19 11:34:58;;;;;;;1.85;0.68;;;21.20;89.20;;;;;;5031765;28;20037;-68
2021/09/19 11:37:27;;;;;;;1.52;0.73;;;21.20;89.40;;;;;;5019765;28;20040;-69
2021/09/19 11:39:53;;;;;;;1.13;0.68;;;21.30;88.80;;;;;;5023987;28;20083;-69
2021/09/19 11:42:18;;;;;;;1.52;0.60;;;21.20;88.30;;;;;;5026417;28;20021;-69
2021/09/19 11:44:50;;;;;;;1.20;0.70;;;21.20;88.10;;;;;;5026350;28;20021;-69
2021/09/19 11:47:18;;;;;;;1.40;0.80;;;21.10;87.90;;;;;;5021614;28;20041;-69
2021/09/19 11:49:45;;;;;;;2.33;0.65;;;21.10;88.40;;;;;;5022308;28;20032;-69
2021/09/19 11:52:12;;;;;;;1.90;0.57;;;21.20;88.30;;;;;;5022616;28;20498;-68
2021/09/19 11:54:42;;;;;;;2.08;0.50;;;21.40;88.50;;;;;;5021113;28;20036;-69
2021/09/19 11:57:07;;;;;;;1.83;0.57;;;21.50;88.00;;;;;;5023381;28;20025;-69
2021/09/19 11:59:33;;;;;;;1.20;0.55;;;21.60;87.70;;;;;;5022387;28;20437;-68
2021/09/19 12:01:58;;;;;;;1.60;0.52;;;21.50;86.50;;;;;;5020449;28;20084;-68
2021/09/19 12:04:25;;;;;;;1.13;0.50;;;21.50;85.60;;;;;;5028173;28;20372;-68
2021/09/19 12:06:51;;;;;;;0.80;0.43;;;21.50;85.20;;;;;;5023965;28;20025;-68
2021/09/19 12:09:19;;;;;;;0.88;0.50;;;21.40;85.30;;;;;;5022238;28;20124;-68
2021/09/19 12:11:47;;;;;;;1.58;0.60;;;21.30;85.00;;;;;;5022684;28;20025;-68
2021/09/19 12:14:21;;;;;;;0.85;0.50;;;21.20;84.80;;;;;;5024856;28;20112;-68
2021/09/19 12:17:09;;;;;;;1.75;0.50;;;21.10;84.40;;;;;;5035699;28;20049;-67
2021/09/19 12:19:36;;;;;;;1.33;0.50;;;20.90;84.60;;;;;;5019134;28;20041;-68
2021/09/19 12:22:05;;;;;;;2.15;0.60;;;20.80;84.80;;;;;;5023461;28;20484;-68
2021/09/19 12:24:33;;;;;;;1.42;0.57;;;20.80;84.70;;;;;;5026120;28;20384;-68
2021/09/19 12:27:16;;;;;;;1.60;0.60;;;20.70;85.10;;;;;;5028421;28;20543;-68
2021/09/19 12:29:55;;;;;;;1.92;0.60;;;20.60;85.40;;;;;;5024323;28;20079;-68
2021/09/19 12:32:20;;;;;;;0.80;0.40;;;20.40;85.70;;;;;;5028062;28;20130;-68
2021/09/19 12:34:46;;;;;;;1.17;0.50;;;20.40;86.30;;;;;;5029638;28;20480;-68